Time,TemperatureF,DewpointF,PressureIn,WindDirection,WindDirectionDegrees,WindSpeedMPH,WindSpeedGustMPH,Humidity,HourlyPrecipIn,Conditions,Clouds,dailyrainin,SoftwareType,DateUTC
2013-04-30 00:00:00,50.0,36.7,30.22,South,180,0.0,0.0,60,0.00,,---,0.00,VWS V14.01,2013-04-30 03:00:00,
2013-04-30 00:30:00,48.9,34.8,30.23,South,180,0.0,0.0,58,0.00,,---,0.00,VWS V14.01,2013-04-30 03:30:00,
2013-04-30 01:00:00,48.0,35.2,30.24,South,180,0.0,0.0,61,0.00,,---,0.00,VWS V14.01,2013-04-30 04:00:00,
2013-04-30 01:30:00,47.2,35.7,30.24,South,180,0.0,0.0,64,0.00,,---,0.00,VWS V14.01,2013-04-30 04:30:00,
2013-04-30 02:00:00,47.4,35.8,30.24,South,180,0.0,0.0,64,0.00,,---,0.00,VWS V14.01,2013-04-30 05:00:00,
2013-04-30 02:30:00,47.4,36.2,30.24,South,180,0.0,0.0,65,0.00,,---,0.00,VWS V14.01,2013-04-30 05:30:00,
2013-04-30 03:00:00,46.4,36.0,30.23,South,180,0.0,0.0,67,0.00,,---,0.00,VWS V14.01,2013-04-30 06:00:00,
2013-04-30 03:30:00,45.4,35.5,30.23,South,180,0.0,0.0,68,0.00,,---,0.00,VWS V14.01,2013-04-30 06:30:00,
2013-04-30 04:00:00,44.4,35.2,30.23,South,180,0.0,0.0,70,0.00,,---,0.00,VWS V14.01,2013-04-30 07:00:00,
2013-04-30 05:00:00,42.1,35.1,30.24,South,180,0.0,0.0,76,0.00,,---,0.00,VWS V14.01,2013-04-30 08:00:00,
2013-04-30 05:30:00,40.9,34.3,30.25,South,180,0.0,0.0,77,0.00,,---,0.00,VWS V14.01,2013-04-30 08:30:00,
2013-04-30 06:00:00,40.2,33.9,30.26,South,180,0.0,0.0,78,0.00,,---,0.00,VWS V14.01,2013-04-30 09:00:00,
2013-04-30 06:30:00,39.3,34.0,30.26,South,180,0.0,0.0,81,0.00,,---,0.00,VWS V14.01,2013-04-30 09:30:00,
2013-04-30 07:00:00,38.6,33.9,30.27,South,180,0.0,0.0,83,0.00,,---,0.00,VWS V14.01,2013-04-30 10:00:00,
2013-04-30 07:30:00,38.5,34.1,30.28,South,180,0.0,0.0,84,0.00,,---,0.00,VWS V14.01,2013-04-30 10:30:00,
2013-04-30 08:00:00,39.6,35.5,30.29,South,180,0.0,0.0,85,0.00,,---,0.00,VWS V14.01,2013-04-30 11:00:00,
2013-04-30 08:30:00,42.6,37.5,30.30,South,180,0.0,0.0,82,0.00,,---,0.00,VWS V14.01,2013-04-30 11:30:00,
2013-04-30 09:00:00,49.6,39.5,30.31,South,180,0.0,1.0,68,0.00,,---,0.00,VWS V14.01,2013-04-30 12:00:00,
2013-04-30 09:30:00,56.6,38.2,30.31,South,180,0.0,1.0,50,0.00,,---,0.00,VWS V14.01,2013-04-30 12:30:00,
2013-04-30 10:00:00,61.6,33.0,30.31,South,180,0.0,2.0,34,0.00,,---,0.00,VWS V14.01,2013-04-30 13:00:00,
2013-04-30 10:30:00,66.4,35.7,30.31,South,180,1.0,4.0,32,0.00,,---,0.00,VWS V14.01,2013-04-30 13:30:00,
2013-04-30 11:00:00,66.3,31.4,30.31,SE,135,1.0,5.0,27,0.00,,---,0.00,VWS V14.01,2013-04-30 14:00:00,
2013-04-30 11:30:00,66.8,31.8,30.30,SSE,158,1.0,6.0,27,0.00,,---,0.00,VWS V14.01,2013-04-30 14:30:00,
2013-04-30 12:00:00,68.3,33.1,30.30,SSE,158,1.0,7.0,27,0.00,,---,0.00,VWS V14.01,2013-04-30 15:00:00,
2013-04-30 12:30:00,69.0,34.6,30.29,South,180,2.0,8.0,28,0.00,,---,0.00,VWS V14.01,2013-04-30 15:30:00,
2013-04-30 13:00:00,71.9,35.2,30.29,SSE,158,2.0,8.0,26,0.00,,---,0.00,VWS V14.01,2013-04-30 16:00:00,
2013-04-30 13:30:00,71.0,33.4,30.28,SE,135,2.0,6.0,25,0.00,,---,0.00,VWS V14.01,2013-04-30 16:30:00,
2013-04-30 14:00:00,71.0,32.4,30.28,SSW,202,2.0,9.0,24,0.00,,---,0.00,VWS V14.01,2013-04-30 17:00:00,
2013-04-30 14:30:00,69.5,31.2,30.28,SE,135,2.0,8.0,24,0.00,,---,0.00,VWS V14.01,2013-04-30 17:30:00,
2013-04-30 15:00:00,70.4,32.9,30.28,SSE,158,2.0,8.0,25,0.00,,---,0.00,VWS V14.01,2013-04-30 18:00:00,
2013-04-30 15:30:00,69.6,33.2,30.28,SSE,158,2.0,9.0,26,0.00,,---,0.00,VWS V14.01,2013-04-30 18:30:00,
2013-04-30 16:00:00,68.5,33.2,30.28,SE,135,2.0,9.0,27,0.00,,---,0.00,VWS V14.01,2013-04-30 19:00:00,
2013-04-30 16:30:00,71.0,34.4,30.27,North,0,2.0,8.0,26,0.00,,---,0.00,VWS V14.01,2013-04-30 19:30:00,
2013-04-30 17:00:00,68.7,32.5,30.28,ENE,68,2.0,7.0,26,0.00,,---,0.00,VWS V14.01,2013-04-30 20:00:00,
2013-04-30 17:30:00,68.8,33.5,30.27,ESE,112,2.0,6.0,27,0.00,,---,0.00,VWS V14.01,2013-04-30 20:30:00,
2013-04-30 18:00:00,66.7,33.5,30.28,SE,135,2.0,7.0,29,0.00,,---,0.00,VWS V14.01,2013-04-30 21:00:00,
2013-04-30 18:30:00,66.6,31.6,30.28,SE,135,1.0,6.0,27,0.00,,---,0.00,VWS V14.01,2013-04-30 21:30:00,
2013-04-30 19:00:00,64.7,30.9,30.29,East,90,1.0,6.0,28,0.00,,---,0.00,VWS V14.01,2013-04-30 22:00:00,
2013-04-30 19:30:00,63.5,29.8,30.29,SE,135,1.0,6.0,28,0.00,,---,0.00,VWS V14.01,2013-04-30 22:30:00,
2013-04-30 20:00:00,62.5,30.7,30.30,SSE,158,0.0,4.0,30,0.00,,---,0.00,VWS V14.01,2013-04-30 23:00:00,
2013-04-30 20:30:00,60.4,30.4,30.30,SSE,158,0.0,2.0,32,0.00,,---,0.00,VWS V14.01,2013-04-30 23:30:00,
2013-04-30 21:00:00,57.7,32.9,30.31,East,90,0.0,3.0,39,0.00,,---,0.00,VWS V14.01,2013-05-01 00:00:00,
2013-04-30 21:30:00,54.6,35.8,30.32,ENE,68,0.0,3.0,49,0.00,,---,0.00,VWS V14.01,2013-05-01 00:30:00,
2013-04-30 22:00:00,52.0,35.9,30.33,ENE,68,0.0,0.0,54,0.00,,---,0.00,VWS V14.01,2013-05-01 01:00:00,
2013-04-30 22:30:00,49.7,35.1,30.33,ENE,68,0.0,0.0,57,0.00,,---,0.00,VWS V14.01,2013-05-01 01:30:00,
2013-04-30 23:00:00,48.1,34.0,30.33,ENE,68,0.0,0.0,58,0.00,,---,0.00,VWS V14.01,2013-05-01 02:00:00,
2013-04-30 23:30:00,46.4,34.1,30.34,ENE,68,0.0,0.0,62,0.00,,---,0.00,VWS V14.01,2013-05-01 02:30:00,